sensor_id;sensor_type;location;lat;lon;timestamp;temperature;humidity
8340;DHT22;4207;49.314;7.162;2023-04-01T00:00:50;9.40;99.90
8340;DHT22;4207;49.314;7.162;2023-04-01T00:03:20;9.30;99.90
8340;DHT22;4207;49.314;7.162;2023-04-01T00:05:50;9.30;99.90
8340;DHT22;4207;49.314;7.162;2023-04-01T00:08:18;9.30;99.90
8340;DHT22;4207;49.314;7.162;2023-04-01T00:10:47;9.30;99.90
8340;DHT22;4207;49.314;7.162;2023-04-01T00:13:16;9.30;99.90
8340;DHT22;4207;49.314;7.162;2023-04-01T00:15:44;9.30;99.90
8340;DHT22;4207;49.314;7.162;2023-04-01T00:18:13;9.30;99.90
8340;DHT22;4207;49.314;7.162;2023-04-01T00:20:44;9.30;99.90
8340;DHT22;4207;49.314;7.162;2023-04-01T00:23:13;9.40;99.90
8340;DHT22;4207;49.314;7.162;2023-04-01T00:25:42;9.40;99.90
8340;DHT22;4207;49.314;7.162;2023-04-01T00:28:10;9.30;99.90
8340;DHT22;4207;49.314;7.162;2023-04-01T00:30:38;9.40;99.90
8340;DHT22;4207;49.314;7.162;2023-04-01T00:33:09;9.40;99.90
8340;DHT22;4207;49.314;7.162;2023-04-01T00:35:37;9.40;99.90
8340;DHT22;4207;49.314;7.162;2023-04-01T00:38:05;9.40;99.90
8340;DHT22;4207;49.314;7.162;2023-04-01T00:40:37;9.40;99.90
8340;DHT22;4207;49.314;7.162;2023-04-01T00:43:11;9.40;99.90
8340;DHT22;4207;49.314;7.162;2023-04-01T00:45:41;9.70;99.90
8340;DHT22;4207;49.314;7.162;2023-04-01T00:48:12;9.40;99.90
8340;DHT22;4207;49.314;7.162;2023-04-01T00:50:44;9.40;99.90
8340;DHT22;4207;49.314;7.162;2023-04-01T00:53:13;9.40;99.90
8340;DHT22;4207;49.314;7.162;2023-04-01T00:55:49;9.40;99.90
8340;DHT22;4207;49.314;7.162;2023-04-01T00:58:21;9.40;99.90
8340;DHT22;4207;49.314;7.162;2023-04-01T01:00:50;9.40;99.90
8340;DHT22;4207;49.314;7.162;2023-04-01T01:03:19;9.30;99.90
8340;DHT22;4207;49.314;7.162;2023-04-01T01:06:14;9.40;99.90
8340;DHT22;4207;49.314;7.162;2023-04-01T01:09:10;9.20;99.90
8340;DHT22;4207;49.314;7.162;2023-04-01T01:11:48;9.20;99.90
8340;DHT22;4207;49.314;7.162;2023-04-01T01:14:33;9.30;99.90
8340;DHT22;4207;49.314;7.162;2023-04-01T01:17:09;9.30;99.90
8340;DHT22;4207;49.314;7.162;2023-04-01T01:20:04;9.30;99.90
8340;DHT22;4207;49.314;7.162;2023-04-01T01:26:14;9.30;99.90
8340;DHT22;4207;49.314;7.162;2023-04-01T01:28:55;9.40;99.90
8340;DHT22;4207;49.314;7.162;2023-04-01T01:31:34;9.40;99.90
8340;DHT22;4207;49.314;7.162;2023-04-01T01:34:14;9.40;99.90
8340;DHT22;4207;49.314;7.162;2023-04-01T01:36:49;9.40;99.90
8340;DHT22;4207;49.314;7.162;2023-04-01T01:39:20;9.40;99.90
8340;DHT22;4207;49.314;7.162;2023-04-01T01:41:55;9.40;99.90
8340;DHT22;4207;49.314;7.162;2023-04-01T01:44:26;9.70;99.90
8340;DHT22;4207;49.314;7.162;2023-04-01T01:46:56;9.40;99.90
8340;DHT22;4207;49.314;7.162;2023-04-01T01:49:26;9.30;99.90
8340;DHT22;4207;49.314;7.162;2023-04-01T01:51:59;9.90;99.90
8340;DHT22;4207;49.314;7.162;2023-04-01T01:54:27;9.30;99.90
8340;DHT22;4207;49.314;7.162;2023-04-01T01:57:03;9.30;99.90
8340;DHT22;4207;49.314;7.162;2023-04-01T01:59:36;9.20;99.90
8340;DHT22;4207;49.314;7.162;2023-04-01T02:02:06;9.10;99.90
8340;DHT22;4207;49.314;7.162;2023-04-01T02:04:37;9.10;99.90
8340;DHT22;4207;49.314;7.162;2023-04-01T02:07:10;9.00;99.90
8340;DHT22;4207;49.314;7.162;2023-04-01T02:09:40;9.00;99.90
8340;DHT22;4207;49.314;7.162;2023-04-01T02:12:10;9.00;99.90
8340;DHT22;4207;49.314;7.162;2023-04-01T02:14:43;8.90;99.90
8340;DHT22;4207;49.314;7.162;2023-04-01T02:17:16;8.90;99.90
8340;DHT22;4207;49.314;7.162;2023-04-01T02:19:48;8.90;99.90
8340;DHT22;4207;49.314;7.162;2023-04-01T02:22:22;8.90;99.90
8340;DHT22;4207;49.314;7.162;2023-04-01T02:24:54;8.90;99.90
8340;DHT22;4207;49.314;7.162;2023-04-01T02:27:25;8.90;99.90
8340;DHT22;4207;49.314;7.162;2023-04-01T02:29:54;8.90;99.90
8340;DHT22;4207;49.314;7.162;2023-04-01T02:32:23;8.90;99.90
8340;DHT22;4207;49.314;7.162;2023-04-01T02:34:52;8.80;99.90
8340;DHT22;4207;49.314;7.162;2023-04-01T02:37:21;9.00;99.90
8340;DHT22;4207;49.314;7.162;2023-04-01T02:39:50;8.70;99.90
8340;DHT22;4207;49.314;7.162;2023-04-01T02:42:18;8.70;99.90
8340;DHT22;4207;49.314;7.162;2023-04-01T02:44:46;8.70;99.90
8340;DHT22;4207;49.314;7.162;2023-04-01T02:47:15;8.70;99.90
8340;DHT22;4207;49.314;7.162;2023-04-01T02:49:44;8.70;99.90
8340;DHT22;4207;49.314;7.162;2023-04-01T02:52:12;8.70;99.90
8340;DHT22;4207;49.314;7.162;2023-04-01T02:54:41;8.70;99.90
8340;DHT22;4207;49.314;7.162;2023-04-01T02:57:09;8.70;99.90
8340;DHT22;4207;49.314;7.162;2023-04-01T02:59:38;8.70;99.90
8340;DHT22;4207;49.314;7.162;2023-04-01T03:02:07;8.90;99.90
8340;DHT22;4207;49.314;7.162;2023-04-01T03:04:38;8.80;99.90
8340;DHT22;4207;49.314;7.162;2023-04-01T03:07:06;8.70;99.90
8340;DHT22;4207;49.314;7.162;2023-04-01T03:09:35;8.80;99.90
8340;DHT22;4207;49.314;7.162;2023-04-01T03:12:05;8.80;99.90
8340;DHT22;4207;49.314;7.162;2023-04-01T03:14:46;8.80;99.90
8340;DHT22;4207;49.314;7.162;2023-04-01T03:17:14;8.80;99.90
8340;DHT22;4207;49.314;7.162;2023-04-01T03:19:42;8.80;99.90
8340;DHT22;4207;49.314;7.162;2023-04-01T03:22:11;8.80;99.90
8340;DHT22;4207;49.314;7.162;2023-04-01T03:24:39;8.80;99.90
8340;DHT22;4207;49.314;7.162;2023-04-01T03:27:08;8.80;99.90
8340;DHT22;4207;49.314;7.162;2023-04-01T03:29:37;8.80;99.90
8340;DHT22;4207;49.314;7.162;2023-04-01T03:32:06;8.90;99.90
8340;DHT22;4207;49.314;7.162;2023-04-01T03:34:34;8.80;99.90
8340;DHT22;4207;49.314;7.162;2023-04-01T03:37:02;8.80;99.90
8340;DHT22;4207;49.314;7.162;2023-04-01T03:39:31;8.80;99.90
8340;DHT22;4207;49.314;7.162;2023-04-01T03:41:59;8.80;99.90
8340;DHT22;4207;49.314;7.162;2023-04-01T03:44:31;8.80;99.90
8340;DHT22;4207;49.314;7.162;2023-04-01T03:47:00;8.80;99.90
8340;DHT22;4207;49.314;7.162;2023-04-01T03:49:28;8.70;99.90
8340;DHT22;4207;49.314;7.162;2023-04-01T03:51:59;8.70;99.90
8340;DHT22;4207;49.314;7.162;2023-04-01T03:54:27;8.80;99.90
8340;DHT22;4207;49.314;7.162;2023-04-01T03:56:55;8.70;99.90
8340;DHT22;4207;49.314;7.162;2023-04-01T03:59:25;8.70;99.90
8340;DHT22;4207;49.314;7.162;2023-04-01T04:01:54;8.70;99.90
8340;DHT22;4207;49.314;7.162;2023-04-01T04:04:23;8.60;99.90
8340;DHT22;4207;49.314;7.162;2023-04-01T04:06:51;8.50;99.90
8340;DHT22;4207;49.314;7.162;2023-04-01T04:09:21;8.50;99.90
8340;DHT22;4207;49.314;7.162;2023-04-01T04:11:50;8.40;99.90
8340;DHT22;4207;49.314;7.162;2023-04-01T04:14:18;8.40;99.90
8340;DHT22;4207;49.314;7.162;2023-04-01T04:16:47;8.30;99.90
8340;DHT22;4207;49.314;7.162;2023-04-01T04:19:17;8.30;99.90
8340;DHT22;4207;49.314;7.162;2023-04-01T04:21:45;8.40;99.90
8340;DHT22;4207;49.314;7.162;2023-04-01T04:24:13;8.30;99.90
8340;DHT22;4207;49.314;7.162;2023-04-01T04:26:59;8.30;99.90
8340;DHT22;4207;49.314;7.162;2023-04-01T04:29:30;8.30;99.90
8340;DHT22;4207;49.314;7.162;2023-04-01T04:31:59;8.30;99.90
8340;DHT22;4207;49.314;7.162;2023-04-01T04:34:29;8.30;99.90
8340;DHT22;4207;49.314;7.162;2023-04-01T04:36:57;8.30;99.90
8340;DHT22;4207;49.314;7.162;2023-04-01T04:39:30;8.30;99.90
8340;DHT22;4207;49.314;7.162;2023-04-01T04:41:58;8.30;99.90
8340;DHT22;4207;49.314;7.162;2023-04-01T04:44:26;8.30;99.90
8340;DHT22;4207;49.314;7.162;2023-04-01T04:46:59;8.20;99.90
8340;DHT22;4207;49.314;7.162;2023-04-01T04:49:28;8.20;99.90
8340;DHT22;4207;49.314;7.162;2023-04-01T04:51:57;8.20;99.90
8340;DHT22;4207;49.314;7.162;2023-04-01T04:54:27;8.20;99.90
8340;DHT22;4207;49.314;7.162;2023-04-01T04:56:57;8.20;99.90
8340;DHT22;4207;49.314;7.162;2023-04-01T04:59:30;8.20;99.90
8340;DHT22;4207;49.314;7.162;2023-04-01T05:02:04;8.10;99.90
8340;DHT22;4207;49.314;7.162;2023-04-01T05:04:35;8.10;99.90
8340;DHT22;4207;49.314;7.162;2023-04-01T05:07:07;8.10;99.90
8340;DHT22;4207;49.314;7.162;2023-04-01T05:09:36;8.20;99.90
8340;DHT22;4207;49.314;7.162;2023-04-01T05:12:05;8.10;99.90
8340;DHT22;4207;49.314;7.162;2023-04-01T05:14:53;8.10;99.90
8340;DHT22;4207;49.314;7.162;2023-04-01T05:17:22;8.10;99.90
8340;DHT22;4207;49.314;7.162;2023-04-01T05:19:51;8.10;99.90
8340;DHT22;4207;49.314;7.162;2023-04-01T05:22:20;8.10;99.90
8340;DHT22;4207;49.314;7.162;2023-04-01T05:24:48;8.10;99.90
8340;DHT22;4207;49.314;7.162;2023-04-01T05:27:16;8.10;99.90
8340;DHT22;4207;49.314;7.162;2023-04-01T05:29:45;8.10;99.90
8340;DHT22;4207;49.314;7.162;2023-04-01T05:32:33;8.20;99.90
8340;DHT22;4207;49.314;7.162;2023-04-01T05:35:03;8.00;99.90
8340;DHT22;4207;49.314;7.162;2023-04-01T05:37:33;8.00;99.90
8340;DHT22;4207;49.314;7.162;2023-04-01T05:40:04;8.00;99.90
8340;DHT22;4207;49.314;7.162;2023-04-01T05:42:32;8.00;99.90
8340;DHT22;4207;49.314;7.162;2023-04-01T05:45:04;8.00;99.90
8340;DHT22;4207;49.314;7.162;2023-04-01T05:47:48;8.00;99.90
8340;DHT22;4207;49.314;7.162;2023-04-01T05:50:19;8.00;99.90
8340;DHT22;4207;49.314;7.162;2023-04-01T05:52:48;8.00;99.90
8340;DHT22;4207;49.314;7.162;2023-04-01T05:55:17;8.00;99.90
8340;DHT22;4207;49.314;7.162;2023-04-01T05:57:46;8.00;99.90
8340;DHT22;4207;49.314;7.162;2023-04-01T06:00:16;8.00;99.90
8340;DHT22;4207;49.314;7.162;2023-04-01T06:02:47;8.10;99.90
8340;DHT22;4207;49.314;7.162;2023-04-01T06:05:20;8.00;99.90
8340;DHT22;4207;49.314;7.162;2023-04-01T06:07:50;8.00;99.90
8340;DHT22;4207;49.314;7.162;2023-04-01T06:10:20;8.00;99.90
8340;DHT22;4207;49.314;7.162;2023-04-01T06:12:56;8.00;99.90
8340;DHT22;4207;49.314;7.162;2023-04-01T06:15:47;8.10;99.90
8340;DHT22;4207;49.314;7.162;2023-04-01T06:18:51;8.00;99.90
8340;DHT22;4207;49.314;7.162;2023-04-01T06:21:42;8.00;99.90
8340;DHT22;4207;49.314;7.162;2023-04-01T06:24:29;8.10;99.90
8340;DHT22;4207;49.314;7.162;2023-04-01T06:27:05;8.10;99.90
8340;DHT22;4207;49.314;7.162;2023-04-01T06:29:53;8.20;99.90
8340;DHT22;4207;49.314;7.162;2023-04-01T06:35:54;8.60;99.90
8340;DHT22;4207;49.314;7.162;2023-04-01T06:38:46;8.80;99.90
8340;DHT22;4207;49.314;7.162;2023-04-01T06:41:46;8.90;99.90
8340;DHT22;4207;49.314;7.162;2023-04-01T06:44:28;9.00;99.90
8340;DHT22;4207;49.314;7.162;2023-04-01T06:47:33;9.10;99.90
8340;DHT22;4207;49.314;7.162;2023-04-01T06:50:48;9.00;99.90
8340;DHT22;4207;49.314;7.162;2023-04-01T06:53:46;9.30;99.90
8340;DHT22;4207;49.314;7.162;2023-04-01T06:56:50;9.10;99.90
8340;DHT22;4207;49.314;7.162;2023-04-01T06:59:27;8.90;99.90
8340;DHT22;4207;49.314;7.162;2023-04-01T07:02:00;8.80;99.90
8340;DHT22;4207;49.314;7.162;2023-04-01T07:04:31;8.70;99.90
8340;DHT22;4207;49.314;7.162;2023-04-01T07:07:04;8.60;99.90
8340;DHT22;4207;49.314;7.162;2023-04-01T07:09:51;8.60;99.90
8340;DHT22;4207;49.314;7.162;2023-04-01T07:12:37;8.60;99.90
8340;DHT22;4207;49.314;7.162;2023-04-01T07:15:29;8.60;99.90
8340;DHT22;4207;49.314;7.162;2023-04-01T07:18:04;8.50;99.90
8340;DHT22;4207;49.314;7.162;2023-04-01T07:20:36;8.50;99.90
8340;DHT22;4207;49.314;7.162;2023-04-01T07:23:06;8.50;99.90
8340;DHT22;4207;49.314;7.162;2023-04-01T07:25:50;8.50;99.90
8340;DHT22;4207;49.314;7.162;2023-04-01T07:28:46;8.50;99.90
8340;DHT22;4207;49.314;7.162;2023-04-01T07:31:49;8.50;99.90
8340;DHT22;4207;49.314;7.162;2023-04-01T07:34:23;8.60;99.90
8340;DHT22;4207;49.314;7.162;2023-04-01T07:36:57;8.70;99.90
8340;DHT22;4207;49.314;7.162;2023-04-01T07:39:37;8.80;99.90
8340;DHT22;4207;49.314;7.162;2023-04-01T07:42:21;8.70;99.90
8340;DHT22;4207;49.314;7.162;2023-04-01T07:44:58;8.70;99.90
8340;DHT22;4207;49.314;7.162;2023-04-01T07:47:39;8.70;99.90
8340;DHT22;4207;49.314;7.162;2023-04-01T07:50:14;8.70;99.90
8340;DHT22;4207;49.314;7.162;2023-04-01T07:52:50;8.80;99.90
8340;DHT22;4207;49.314;7.162;2023-04-01T07:55:27;8.80;99.90
8340;DHT22;4207;49.314;7.162;2023-04-01T07:58:03;8.90;99.90
8340;DHT22;4207;49.314;7.162;2023-04-01T08:00:47;8.90;99.90
8340;DHT22;4207;49.314;7.162;2023-04-01T08:03:43;9.00;99.90
8340;DHT22;4207;49.314;7.162;2023-04-01T08:06:18;9.00;99.90
8340;DHT22;4207;49.314;7.162;2023-04-01T08:08:57;9.00;99.90
8340;DHT22;4207;49.314;7.162;2023-04-01T08:11:55;9.00;99.90
8340;DHT22;4207;49.314;7.162;2023-04-01T08:14:55;8.90;99.90
8340;DHT22;4207;49.314;7.162;2023-04-01T08:17:56;8.90;99.90
8340;DHT22;4207;49.314;7.162;2023-04-01T08:20:33;9.00;99.90
8340;DHT22;4207;49.314;7.162;2023-04-01T08:23:07;9.00;99.90
8340;DHT22;4207;49.314;7.162;2023-04-01T08:25:47;9.00;99.90
8340;DHT22;4207;49.314;7.162;2023-04-01T08:28:22;9.00;99.90
8340;DHT22;4207;49.314;7.162;2023-04-01T08:30:58;9.10;99.90
8340;DHT22;4207;49.314;7.162;2023-04-01T08:33:31;9.10;99.90
8340;DHT22;4207;49.314;7.162;2023-04-01T08:36:07;9.10;99.90
8340;DHT22;4207;49.314;7.162;2023-04-01T08:38:41;9.10;99.90
8340;DHT22;4207;49.314;7.162;2023-04-01T08:45:18;9.20;99.90
8340;DHT22;4207;49.314;7.162;2023-04-01T08:48:11;9.30;99.90
8340;DHT22;4207;49.314;7.162;2023-04-01T08:50:58;9.30;99.90
8340;DHT22;4207;49.314;7.162;2023-04-01T08:53:48;9.20;99.90
8340;DHT22;4207;49.314;7.162;2023-04-01T08:56:25;9.20;99.90
8340;DHT22;4207;49.314;7.162;2023-04-01T08:59:19;9.30;99.90
8340;DHT22;4207;49.314;7.162;2023-04-01T09:02:11;9.30;99.90
8340;DHT22;4207;49.314;7.162;2023-04-01T09:05:18;9.30;99.90
8340;DHT22;4207;49.314;7.162;2023-04-01T09:08:00;9.20;99.90
8340;DHT22;4207;49.314;7.162;2023-04-01T09:14:02;9.20;99.90
8340;DHT22;4207;49.314;7.162;2023-04-01T09:19:49;9.30;99.90
8340;DHT22;4207;49.314;7.162;2023-04-01T09:22:35;9.40;99.90
8340;DHT22;4207;49.314;7.162;2023-04-01T09:25:49;9.40;99.90
8340;DHT22;4207;49.314;7.162;2023-04-01T09:28:20;9.50;99.90
8340;DHT22;4207;49.314;7.162;2023-04-01T09:31:23;9.50;99.90
8340;DHT22;4207;49.314;7.162;2023-04-01T09:37:21;9.50;99.90
8340;DHT22;4207;49.314;7.162;2023-04-01T09:40:14;9.50;99.90
8340;DHT22;4207;49.314;7.162;2023-04-01T09:43:20;9.60;99.90
8340;DHT22;4207;49.314;7.162;2023-04-01T09:46:04;9.50;99.90
8340;DHT22;4207;49.314;7.162;2023-04-01T09:49:00;9.50;99.90
8340;DHT22;4207;49.314;7.162;2023-04-01T09:51:43;9.50;99.90
8340;DHT22;4207;49.314;7.162;2023-04-01T09:54:53;9.50;99.90
8340;DHT22;4207;49.314;7.162;2023-04-01T09:57:55;9.50;99.90
8340;DHT22;4207;49.314;7.162;2023-04-01T10:01:13;9.50;99.90
8340;DHT22;4207;49.314;7.162;2023-04-01T10:16:18;9.50;99.90
8340;DHT22;4207;49.314;7.162;2023-04-01T10:28:42;9.60;99.90
8340;DHT22;4207;49.314;7.162;2023-04-01T10:34:59;9.60;99.90
8340;DHT22;4207;49.314;7.162;2023-04-01T10:37:50;9.70;99.90
8340;DHT22;4207;49.314;7.162;2023-04-01T10:43:56;9.90;99.90
8340;DHT22;4207;49.314;7.162;2023-04-01T10:47:03;9.90;99.90
8340;DHT22;4207;49.314;7.162;2023-04-01T10:49:45;9.90;99.90
8340;DHT22;4207;49.314;7.162;2023-04-01T10:52:39;10.00;99.90
8340;DHT22;4207;49.314;7.162;2023-04-01T10:55:54;10.00;99.90
8340;DHT22;4207;49.314;7.162;2023-04-01T10:59:23;9.90;99.90
8340;DHT22;4207;49.314;7.162;2023-04-01T11:03:00;9.90;99.90
8340;DHT22;4207;49.314;7.162;2023-04-01T11:06:27;9.90;99.90
8340;DHT22;4207;49.314;7.162;2023-04-01T11:15:37;10.10;99.90
8340;DHT22;4207;49.314;7.162;2023-04-01T11:25:09;10.20;99.90
8340;DHT22;4207;49.314;7.162;2023-04-01T11:31:10;10.40;99.90
8340;DHT22;4207;49.314;7.162;2023-04-01T11:33:49;10.40;99.90
8340;DHT22;4207;49.314;7.162;2023-04-01T11:36:36;10.50;99.90
8340;DHT22;4207;49.314;7.162;2023-04-01T11:39:20;10.50;99.90
8340;DHT22;4207;49.314;7.162;2023-04-01T11:42:20;10.60;99.90
8340;DHT22;4207;49.314;7.162;2023-04-01T11:45:33;10.70;99.90
8340;DHT22;4207;49.314;7.162;2023-04-01T11:48:34;10.80;99.90
8340;DHT22;4207;49.314;7.162;2023-04-01T11:51:30;10.80;99.90
8340;DHT22;4207;49.314;7.162;2023-04-01T11:54:10;10.90;99.90
8340;DHT22;4207;49.314;7.162;2023-04-01T11:56:57;11.00;99.90
8340;DHT22;4207;49.314;7.162;2023-04-01T11:59:43;11.00;99.90
8340;DHT22;4207;49.314;7.162;2023-04-01T12:02:23;11.00;99.90
8340;DHT22;4207;49.314;7.162;2023-04-01T12:05:18;11.00;99.90
8340;DHT22;4207;49.314;7.162;2023-04-01T12:07:57;10.90;99.90
8340;DHT22;4207;49.314;7.162;2023-04-01T12:10:48;11.00;99.90
8340;DHT22;4207;49.314;7.162;2023-04-01T12:13:30;10.90;99.90
8340;DHT22;4207;49.314;7.162;2023-04-01T12:19:00;10.80;99.90
8340;DHT22;4207;49.314;7.162;2023-04-01T12:21:36;10.90;99.90
8340;DHT22;4207;49.314;7.162;2023-04-01T12:24:33;10.90;99.90
8340;DHT22;4207;49.314;7.162;2023-04-01T12:27:20;10.90;99.90
8340;DHT22;4207;49.314;7.162;2023-04-01T12:30:06;10.90;99.90
8340;DHT22;4207;49.314;7.162;2023-04-01T12:32:41;10.90;99.90
8340;DHT22;4207;49.314;7.162;2023-04-01T12:35:20;10.80;99.90
8340;DHT22;4207;49.314;7.162;2023-04-01T12:38:03;10.70;99.90
8340;DHT22;4207;49.314;7.162;2023-04-01T12:41:02;10.50;99.90
8340;DHT22;4207;49.314;7.162;2023-04-01T12:43:59;10.50;99.90
8340;DHT22;4207;49.314;7.162;2023-04-01T12:46:42;10.50;99.90
8340;DHT22;4207;49.314;7.162;2023-04-01T12:49:44;10.40;99.90
8340;DHT22;4207;49.314;7.162;2023-04-01T12:52:15;10.40;99.90
8340;DHT22;4207;49.314;7.162;2023-04-01T12:55:24;10.30;99.90
8340;DHT22;4207;49.314;7.162;2023-04-01T12:58:17;10.30;99.90
8340;DHT22;4207;49.314;7.162;2023-04-01T13:01:01;10.30;99.90
8340;DHT22;4207;49.314;7.162;2023-04-01T13:03:50;10.30;99.90
8340;DHT22;4207;49.314;7.162;2023-04-01T13:09:24;10.40;99.90
8340;DHT22;4207;49.314;7.162;2023-04-01T13:12:23;10.40;99.90
8340;DHT22;4207;49.314;7.162;2023-04-01T13:17:53;10.40;99.90
8340;DHT22;4207;49.314;7.162;2023-04-01T13:20:41;10.40;99.90
8340;DHT22;4207;49.314;7.162;2023-04-01T13:23:24;10.50;99.90
8340;DHT22;4207;49.314;7.162;2023-04-01T13:26:06;10.50;99.90
8340;DHT22;4207;49.314;7.162;2023-04-01T13:28:49;10.50;99.90
8340;DHT22;4207;49.314;7.162;2023-04-01T13:31:29;10.80;99.90
8340;DHT22;4207;49.314;7.162;2023-04-01T13:34:13;10.60;99.90
8340;DHT22;4207;49.314;7.162;2023-04-01T13:36:52;10.60;99.90
8340;DHT22;4207;49.314;7.162;2023-04-01T13:39:30;10.60;99.90
8340;DHT22;4207;49.314;7.162;2023-04-01T13:42:13;10.60;99.90
8340;DHT22;4207;49.314;7.162;2023-04-01T13:44:49;10.60;99.90
8340;DHT22;4207;49.314;7.162;2023-04-01T13:50:34;10.50;99.90
8340;DHT22;4207;49.314;7.162;2023-04-01T13:56:08;10.80;99.90
8340;DHT22;4207;49.314;7.162;2023-04-01T13:59:07;10.70;99.90
8340;DHT22;4207;49.314;7.162;2023-04-01T14:01:42;10.60;99.90
8340;DHT22;4207;49.314;7.162;2023-04-01T14:04:30;10.50;99.90
8340;DHT22;4207;49.314;7.162;2023-04-01T14:07:13;10.40;99.90
8340;DHT22;4207;49.314;7.162;2023-04-01T14:10:11;10.30;99.90
8340;DHT22;4207;49.314;7.162;2023-04-01T14:12:47;10.30;99.90
8340;DHT22;4207;49.314;7.162;2023-04-01T14:15:29;10.30;99.90
8340;DHT22;4207;49.314;7.162;2023-04-01T14:18:24;10.40;99.90
8340;DHT22;4207;49.314;7.162;2023-04-01T14:21:05;10.40;99.90
8340;DHT22;4207;49.314;7.162;2023-04-01T14:23:43;10.50;99.90
8340;DHT22;4207;49.314;7.162;2023-04-01T14:26:26;10.90;99.90
8340;DHT22;4207;49.314;7.162;2023-04-01T14:29:08;10.70;99.90
8340;DHT22;4207;49.314;7.162;2023-04-01T14:31:51;10.70;99.90
8340;DHT22;4207;49.314;7.162;2023-04-01T14:34:35;10.70;99.90
8340;DHT22;4207;49.314;7.162;2023-04-01T14:37:19;10.60;99.90
8340;DHT22;4207;49.314;7.162;2023-04-01T14:40:11;10.60;99.90
8340;DHT22;4207;49.314;7.162;2023-04-01T14:43:19;10.30;99.90
8340;DHT22;4207;49.314;7.162;2023-04-01T14:46:08;10.30;99.90
8340;DHT22;4207;49.314;7.162;2023-04-01T14:48:51;10.30;99.90
8340;DHT22;4207;49.314;7.162;2023-04-01T14:51:28;10.20;99.90
8340;DHT22;4207;49.314;7.162;2023-04-01T14:54:04;10.20;99.90
8340;DHT22;4207;49.314;7.162;2023-04-01T14:56:38;10.20;99.90
8340;DHT22;4207;49.314;7.162;2023-04-01T14:59:14;10.20;99.90
8340;DHT22;4207;49.314;7.162;2023-04-01T15:01:48;10.60;99.90
8340;DHT22;4207;49.314;7.162;2023-04-01T15:04:47;10.60;99.90
8340;DHT22;4207;49.314;7.162;2023-04-01T15:07:57;10.40;99.90
8340;DHT22;4207;49.314;7.162;2023-04-01T15:13:30;10.60;99.90
8340;DHT22;4207;49.314;7.162;2023-04-01T15:16:11;10.70;99.90
8340;DHT22;4207;49.314;7.162;2023-04-01T15:18:50;10.70;99.90
8340;DHT22;4207;49.314;7.162;2023-04-01T15:21:43;10.80;99.90
8340;DHT22;4207;49.314;7.162;2023-04-01T15:24:20;10.70;99.90
8340;DHT22;4207;49.314;7.162;2023-04-01T15:27:07;11.40;99.90
8340;DHT22;4207;49.314;7.162;2023-04-01T15:30:00;10.70;99.90
8340;DHT22;4207;49.314;7.162;2023-04-01T15:32:44;10.60;99.90
8340;DHT22;4207;49.314;7.162;2023-04-01T15:35:25;10.50;99.90
8340;DHT22;4207;49.314;7.162;2023-04-01T15:38:05;10.40;99.90
8340;DHT22;4207;49.314;7.162;2023-04-01T15:40:42;10.30;99.90
8340;DHT22;4207;49.314;7.162;2023-04-01T15:43:21;10.30;99.90
8340;DHT22;4207;49.314;7.162;2023-04-01T15:45:58;10.20;99.90
8340;DHT22;4207;49.314;7.162;2023-04-01T15:48:51;10.20;99.90
8340;DHT22;4207;49.314;7.162;2023-04-01T15:51:38;10.10;99.90
8340;DHT22;4207;49.314;7.162;2023-04-01T15:54:38;10.10;99.90
8340;DHT22;4207;49.314;7.162;2023-04-01T15:57:24;10.00;99.90
8340;DHT22;4207;49.314;7.162;2023-04-01T16:00:02;9.90;99.90
8340;DHT22;4207;49.314;7.162;2023-04-01T16:02:45;10.00;99.90
8340;DHT22;4207;49.314;7.162;2023-04-01T16:05:33;9.90;99.90
8340;DHT22;4207;49.314;7.162;2023-04-01T16:08:23;9.80;99.90
8340;DHT22;4207;49.314;7.162;2023-04-01T16:11:08;9.80;99.90
8340;DHT22;4207;49.314;7.162;2023-04-01T16:13:59;9.80;99.90
8340;DHT22;4207;49.314;7.162;2023-04-01T16:16:53;9.80;99.90
8340;DHT22;4207;49.314;7.162;2023-04-01T16:19:37;9.80;99.90
8340;DHT22;4207;49.314;7.162;2023-04-01T16:22:10;9.90;99.90
8340;DHT22;4207;49.314;7.162;2023-04-01T16:24:44;9.90;99.90
8340;DHT22;4207;49.314;7.162;2023-04-01T16:27:18;10.00;99.90
8340;DHT22;4207;49.314;7.162;2023-04-01T16:29:56;9.90;99.90
8340;DHT22;4207;49.314;7.162;2023-04-01T16:32:34;9.90;99.90
8340;DHT22;4207;49.314;7.162;2023-04-01T16:35:23;9.90;99.90
8340;DHT22;4207;49.314;7.162;2023-04-01T16:37:58;9.90;99.90
8340;DHT22;4207;49.314;7.162;2023-04-01T16:40:40;9.80;99.90
8340;DHT22;4207;49.314;7.162;2023-04-01T16:43:25;9.80;99.90
8340;DHT22;4207;49.314;7.162;2023-04-01T16:46:17;9.80;99.90
8340;DHT22;4207;49.314;7.162;2023-04-01T16:48:58;9.90;99.90
8340;DHT22;4207;49.314;7.162;2023-04-01T16:51:37;9.80;99.90
8340;DHT22;4207;49.314;7.162;2023-04-01T16:54:14;9.90;99.90
8340;DHT22;4207;49.314;7.162;2023-04-01T16:56:47;9.80;99.90
8340;DHT22;4207;49.314;7.162;2023-04-01T16:59:22;9.90;99.90
8340;DHT22;4207;49.314;7.162;2023-04-01T17:01:57;9.80;99.90
8340;DHT22;4207;49.314;7.162;2023-04-01T17:04:34;9.80;99.90
8340;DHT22;4207;49.314;7.162;2023-04-01T17:07:11;9.70;99.90
8340;DHT22;4207;49.314;7.162;2023-04-01T17:09:55;9.70;99.90
8340;DHT22;4207;49.314;7.162;2023-04-01T17:12:32;9.60;99.90
8340;DHT22;4207;49.314;7.162;2023-04-01T17:15:11;9.50;99.90
8340;DHT22;4207;49.314;7.162;2023-04-01T17:17:50;9.50;99.90
8340;DHT22;4207;49.314;7.162;2023-04-01T17:20:40;9.50;99.90
8340;DHT22;4207;49.314;7.162;2023-04-01T17:23:16;9.50;99.90
8340;DHT22;4207;49.314;7.162;2023-04-01T17:25:56;9.60;99.90
8340;DHT22;4207;49.314;7.162;2023-04-01T17:28:34;9.50;99.90
8340;DHT22;4207;49.314;7.162;2023-04-01T17:31:10;9.50;99.90
8340;DHT22;4207;49.314;7.162;2023-04-01T17:34:04;9.70;99.90
8340;DHT22;4207;49.314;7.162;2023-04-01T17:36:53;9.40;99.90
8340;DHT22;4207;49.314;7.162;2023-04-01T17:39:39;9.40;99.90
8340;DHT22;4207;49.314;7.162;2023-04-01T17:42:15;9.40;99.90
8340;DHT22;4207;49.314;7.162;2023-04-01T17:44:50;9.40;99.90
8340;DHT22;4207;49.314;7.162;2023-04-01T17:47:41;9.40;99.90
8340;DHT22;4207;49.314;7.162;2023-04-01T17:50:35;9.40;99.90
8340;DHT22;4207;49.314;7.162;2023-04-01T17:53:20;9.40;99.90
8340;DHT22;4207;49.314;7.162;2023-04-01T17:56:12;9.30;99.90
8340;DHT22;4207;49.314;7.162;2023-04-01T17:58:46;9.30;99.90
8340;DHT22;4207;49.314;7.162;2023-04-01T18:01:24;9.30;99.90
8340;DHT22;4207;49.314;7.162;2023-04-01T18:07:03;9.20;99.90
8340;DHT22;4207;49.314;7.162;2023-04-01T18:09:37;9.30;99.90
8340;DHT22;4207;49.314;7.162;2023-04-01T18:12:14;9.30;99.90
8340;DHT22;4207;49.314;7.162;2023-04-01T18:17:45;9.30;99.90
8340;DHT22;4207;49.314;7.162;2023-04-01T18:20:25;9.30;99.90
8340;DHT22;4207;49.314;7.162;2023-04-01T18:22:59;9.20;99.90
8340;DHT22;4207;49.314;7.162;2023-04-01T18:25:34;9.20;99.90
8340;DHT22;4207;49.314;7.162;2023-04-01T18:28:20;9.20;99.90
8340;DHT22;4207;49.314;7.162;2023-04-01T18:30:54;9.20;99.90
8340;DHT22;4207;49.314;7.162;2023-04-01T18:33:28;9.10;99.90
8340;DHT22;4207;49.314;7.162;2023-04-01T18:36:08;9.10;99.90
8340;DHT22;4207;49.314;7.162;2023-04-01T18:38:41;9.10;99.90
8340;DHT22;4207;49.314;7.162;2023-04-01T18:41:14;9.00;99.90
8340;DHT22;4207;49.314;7.162;2023-04-01T18:43:57;9.10;99.90
8340;DHT22;4207;49.314;7.162;2023-04-01T18:46:33;9.10;99.90
8340;DHT22;4207;49.314;7.162;2023-04-01T18:49:14;9.00;99.90
8340;DHT22;4207;49.314;7.162;2023-04-01T18:51:48;9.00;99.90
8340;DHT22;4207;49.314;7.162;2023-04-01T18:54:30;9.00;99.90
8340;DHT22;4207;49.314;7.162;2023-04-01T18:57:02;9.00;99.90
8340;DHT22;4207;49.314;7.162;2023-04-01T18:59:36;9.00;99.90
8340;DHT22;4207;49.314;7.162;2023-04-01T19:02:15;9.00;99.90
8340;DHT22;4207;49.314;7.162;2023-04-01T19:04:50;9.00;99.90
8340;DHT22;4207;49.314;7.162;2023-04-01T19:07:39;9.40;99.90